Погода Ареадона 2 недели

Минас-Жерайс, Бразилия

18 - 31 июля
  • 18июля
    Сегодня
    +11°
    +25°
    Ясно и безоблачно
    ВремяПогодаТемператураВлажностьДавлениеВетер, м/сВероятность осадков
    00:00Ясно и безоблачно+15°C86 %689 мм1.3 м/с5 %
    03:00Ясно и безоблачно+14°C89 %689 мм0.6 м/с5 %
    06:00Практически безоблачно+13°C95 %689 мм0.1 м/с5 %
    09:00Ясно и безоблачно+16°C78 %691 мм0.7 м/с5 %
    12:00Ясно и безоблачно+22°C49 %692 мм0.9 м/с5 %
    15:00Ясно и безоблачно+25°C37 %690 мм0.4 м/с5 %
    18:00Ясно и безоблачно+19°C63 %689 мм2.3 м/с5 %
    21:00Ясно и безоблачно+19°C63 %690 мм1.5 м/с5 %
  • 19июля
    Пятница
    +11°
    +26°
    Ясно и безоблачно
    ВремяПогодаТемператураВлажностьДавлениеВетер, м/сВероятность осадков
    00:00Ясно и безоблачно+17°C74 %690 мм0.3 м/с5 %
    03:00Ясно и безоблачно+13°C88 %689 мм1.7 м/с5 %
    06:00Ясно и безоблачно+11°C89 %690 мм2.0 м/с5 %
    09:00Ясно и безоблачно+15°C75 %692 мм1.0 м/с5 %
    12:00Ясно и безоблачно+22°C53 %693 мм1.3 м/с5 %
    15:00Ясно и безоблачно+25°C41 %692 мм0.8 м/с5 %
    18:00Ясно и безоблачно+21°C59 %691 мм2.0 м/с5 %
    21:00Ясно и безоблачно+19°C63 %691 мм1.7 м/с5 %
  • 20июля
    Суббота
    +10°
    +26°
    Ясно и безоблачно
    ВремяПогодаТемператураВлажностьДавлениеВетер, м/сВероятность осадков
    00:00Ясно и безоблачно+17°C75 %691 мм0.7 м/с5 %
    03:00Ясно и безоблачно+13°C90 %690 мм2.1 м/с5 %
    06:00Ясно и безоблачно+12°C96 %690 мм2.1 м/с5 %
    09:00Ясно и безоблачно+16°C79 %692 мм1.2 м/с5 %
    12:00Ясно и безоблачно+23°C56 %692 мм1.3 м/с5 %
    15:00Ясно и безоблачно+26°C45 %691 мм1.1 м/с5 %
    18:00Ясно и безоблачно+20°C68 %690 мм2.4 м/с5 %
    21:00Ясно и безоблачно+17°C79 %689 мм2.3 м/с5 %
  • 21июля
    Воскресенье
    +11°
    +25°
    Ясно и безоблачно
    ВремяПогодаТемператураВлажностьДавлениеВетер, м/сВероятность осадков
    00:00Ясно и безоблачно+15°C84 %690 мм2.1 м/с5 %
    03:00Ясно и безоблачно+13°C93 %689 мм1.7 м/с5 %
    06:00Ясно и безоблачно+11°C97 %689 мм1.8 м/с5 %
    09:00Ясно и безоблачно+15°C79 %691 мм2.1 м/с5 %
    12:00Ясно и безоблачно+21°C58 %692 мм1.6 м/с5 %
    15:00Ясно и безоблачно+24°C47 %690 мм1.5 м/с5 %
    18:00Ясно и безоблачно+20°C65 %689 мм1.8 м/с5 %
    21:00Ясно и безоблачно+17°C80 %690 мм2.2 м/с5 %
  • 22июля
    Понедельник
    +12°
    +26°
    Ясно и безоблачно
    ВремяПогодаТемператураВлажностьДавлениеВетер, м/сВероятность осадков
    00:00Ясно и безоблачно+16°C81 %690 мм1.0 м/с5 %
    03:00Ясно и безоблачно+13°C91 %689 мм1.9 м/с5 %
    06:00Ясно и безоблачно+12°C93 %690 мм2.1 м/с5 %
    09:00Ясно и безоблачно+16°C77 %692 мм1.4 м/с5 %
    12:00Ясно и безоблачно+22°C56 %692 мм1.0 м/с5 %
    15:00Ясно и безоблачно+25°C45 %691 мм0.8 м/с5 %
    18:00Ясно и безоблачно+20°C67 %690 мм2.4 м/с5 %
    21:00Ясно и безоблачно+17°C76 %690 мм2.5 м/с5 %
Мы используем cookies
Соглашаюсь